Hayden, Missouri
Current Conditions -  °F | °C
As of 6:43 PM on Thursday 18 Dec 2014 (Local Time) from KTBN Reporting Station
Haze Haze  
Wind Chill: 34°   Ceiling: 200
Heat Index: 34°   Visibility: 0.75mi
Dew Point: 34°   Wind: 2mph
Humidity: 100%   Direction: 140°SE
Pressure: 30.19"   Gusts: NA
Location:  38.001°N, 92.0596°W
Report Text: KTBN 190043Z AUTO 14002KT 3/4SM R14/4000FT BR VV002 01/01 A3019 RMK AO2
Loading
Personal Weather Stations






























Interactive Weather Map New forecast layout! Learn more

10-Day Weather Forecast

Advertisements
Track Severe Weather on mobile